Time,TemperatureF,DewpointF,PressureIn,WindDirection,WindDirectionDegrees,WindSpeedMPH,WindSpeedGustMPH,Humidity,HourlyPrecipIn,Conditions,Clouds,dailyrainin,SoftwareType,DateUTC
2013-02-17 00:00:00,0.6,-2.6,30.17,East,101,0.0,1.0,86,0.00,,CLR,0.00,VWS V14.01,2013-02-17 05:00:00,
2013-02-17 00:05:00,0.9,-2.3,30.18,East,100,2.0,2.0,86,0.00,,CLR,0.00,VWS V14.01,2013-02-17 05:05:00,
2013-02-17 00:10:00,1.0,-2.2,30.17,East,100,0.0,1.0,86,0.00,,OVC036,0.00,VWS V14.01,2013-02-17 05:10:00,
2013-02-17 00:15:00,0.8,-2.6,30.18,East,100,1.0,1.0,85,0.00,,OVC036,0.00,VWS V14.01,2013-02-17 05:15:00,
2013-02-17 00:20:00,1.0,-2.2,30.17,East,100,2.0,2.0,86,0.00,,OVC036,0.00,VWS V14.01,2013-02-17 05:20:00,
2013-02-17 00:25:00,1.0,-2.2,30.17,East,101,1.0,2.0,86,0.00,,OVC036,0.00,VWS V14.01,2013-02-17 05:25:00,
2013-02-17 00:30:00,1.4,-1.6,30.17,East,101,1.0,1.0,87,0.00,,OVC036,0.00,VWS V14.01,2013-02-17 05:30:00,
2013-02-17 00:35:00,1.6,-1.6,30.17,East,101,1.0,2.0,86,0.00,,OVC036,0.00,VWS V14.01,2013-02-17 05:35:00,
2013-02-17 00:40:00,1.7,-1.5,30.17,East,101,1.0,2.0,86,0.00,,OVC036,0.00,VWS V14.01,2013-02-17 05:40:00,
2013-02-17 00:45:00,2.3,-0.7,30.17,East,101,0.0,1.0,87,0.00,,OVC036,0.00,VWS V14.01,2013-02-17 05:45:00,
2013-02-17 00:50:00,2.3,-0.9,30.18,East,101,1.0,2.0,86,0.00,,OVC036,0.00,VWS V14.01,2013-02-17 05:50:00,
2013-02-17 00:55:00,2.7,-0.3,30.18,East,101,2.0,2.0,87,0.00,,OVC036,0.00,VWS V14.01,2013-02-17 05:55:00,
2013-02-17 01:00:00,2.8,-0.4,30.18,ESE,105,1.0,2.0,86,0.00,,OVC036,0.00,VWS V14.01,2013-02-17 06:00:00,
2013-02-17 01:05:00,2.9,-0.3,30.17,ESE,105,1.0,2.0,86,0.00,,OVC040,0.00,VWS V14.01,2013-02-17 06:05:00,
2013-02-17 01:10:00,2.9,-0.3,30.17,ESE,105,0.0,1.0,86,0.00,,OVC040,0.00,VWS V14.01,2013-02-17 06:10:00,
2013-02-17 01:15:00,2.6,-0.6,30.18,ESE,105,0.0,0.0,86,0.00,,OVC040,0.00,VWS V14.01,2013-02-17 06:15:00,
2013-02-17 01:20:00,2.7,-0.3,30.17,ESE,105,1.0,1.0,87,0.00,,OVC040,0.00,VWS V14.01,2013-02-17 06:20:00,
2013-02-17 01:25:00,3.2,0.2,30.17,ESE,105,1.0,1.0,87,0.00,,OVC040,0.00,VWS V14.01,2013-02-17 06:25:00,
2013-02-17 01:30:00,3.1,0.1,30.17,ESE,105,1.0,1.0,87,0.00,,OVC040,0.00,VWS V14.01,2013-02-17 06:30:00,
2013-02-17 01:35:00,3.3,0.3,30.17,ESE,109,1.0,1.0,87,0.00,,OVC040,0.00,VWS V14.01,2013-02-17 06:35:00,
2013-02-17 01:40:00,2.9,-0.3,30.17,ESE,109,0.0,0.0,86,0.00,,OVC040,0.00,VWS V14.01,2013-02-17 06:40:00,
2013-02-17 01:45:00,2.8,-0.4,30.17,ESE,109,0.0,0.0,86,0.00,,OVC040,0.00,VWS V14.01,2013-02-17 06:45:00,
2013-02-17 01:50:00,2.6,-0.6,30.17,ESE,109,1.0,2.0,86,0.00,,OVC040,0.00,VWS V14.01,2013-02-17 06:50:00,
2013-02-17 01:55:00,2.5,-0.7,30.17,ESE,109,1.0,1.0,86,0.00,,OVC040,0.00,VWS V14.01,2013-02-17 06:55:00,
2013-02-17 02:00:00,2.6,-0.4,30.17,ESE,109,0.0,1.0,87,0.00,,OVC040,0.00,VWS V14.01,2013-02-17 07:00:00,
2013-02-17 02:05:00,2.5,-0.5,30.17,ESE,109,1.0,2.0,87,0.00,,OVC040,0.00,VWS V14.01,2013-02-17 07:05:00,
2013-02-17 02:10:00,2.5,-0.5,30.17,ESE,109,2.0,3.0,87,0.00,,OVC040,0.00,VWS V14.01,2013-02-17 07:10:00,
2013-02-17 02:15:00,2.2,-0.8,30.17,ESE,117,1.0,1.0,87,0.00,,OVC040,0.00,VWS V14.01,2013-02-17 07:15:00,
2013-02-17 02:20:00,1.9,-1.1,30.17,ESE,117,0.0,1.0,87,0.00,,OVC040,0.00,VWS V14.01,2013-02-17 07:20:00,
2013-02-17 02:25:00,2.1,-0.9,30.17,ESE,117,2.0,2.0,87,0.00,,OVC040,0.00,VWS V14.01,2013-02-17 07:25:00,
2013-02-17 02:30:00,2.1,-0.9,30.17,ESE,117,1.0,1.0,87,0.00,,OVC040,0.00,VWS V14.01,2013-02-17 07:30:00,
2013-02-17 02:35:00,2.0,-1.0,30.17,ESE,117,0.0,0.0,87,0.00,,OVC040,0.00,VWS V14.01,2013-02-17 07:35:00,
2013-02-17 02:40:00,1.7,-1.5,30.17,ESE,117,0.0,1.0,86,0.00,,OVC040,0.00,VWS V14.01,2013-02-17 07:40:00,
2013-02-17 02:45:00,1.5,-1.7,30.17,ESE,117,0.0,1.0,86,0.00,,OVC040,0.00,VWS V14.01,2013-02-17 07:45:00,
2013-02-17 02:50:00,0.9,-2.3,30.17,ESE,121,0.0,2.0,86,0.00,,OVC040,0.00,VWS V14.01,2013-02-17 07:50:00,
2013-02-17 02:55:00,1.2,-1.8,30.17,SE,126,0.0,1.0,87,0.00,,OVC040,0.00,VWS V14.01,2013-02-17 07:55:00,
2013-02-17 03:00:00,1.0,-2.2,30.17,SE,126,0.0,0.0,86,0.00,,OVC040,0.00,VWS V14.01,2013-02-17 08:00:00,
2013-02-17 03:06:00,0.9,-2.3,30.18,SE,126,0.0,0.0,86,0.00,,OVC040,0.00,VWS V14.01,2013-02-17 08:06:00,
2013-02-17 03:11:00,1.3,-1.7,30.18,SE,126,0.0,0.0,87,0.00,,OVC040,0.00,VWS V14.01,2013-02-17 08:11:00,
2013-02-17 03:16:00,1.5,-1.5,30.18,SE,126,1.0,1.0,87,0.00,,OVC040,0.00,VWS V14.01,2013-02-17 08:16:00,
2013-02-17 03:21:00,1.6,-1.4,30.18,SE,126,2.0,3.0,87,0.00,,OVC040,0.00,VWS V14.01,2013-02-17 08:21:00,
2013-02-17 03:26:00,2.1,-0.6,30.18,SE,126,0.0,1.0,88,0.00,,OVC040,0.00,VWS V14.01,2013-02-17 08:26:00,
2013-02-17 03:31:00,2.1,-0.9,30.18,SE,126,1.0,2.0,87,0.00,,OVC040,0.00,VWS V14.01,2013-02-17 08:31:00,
2013-02-17 03:36:00,2.3,-0.7,30.18,SE,126,0.0,1.0,87,0.00,,OVC040,0.00,VWS V14.01,2013-02-17 08:36:00,
2013-02-17 03:41:00,2.6,-0.4,30.18,SE,126,0.0,1.0,87,0.00,,OVC040,0.00,VWS V14.01,2013-02-17 08:41:00,
2013-02-17 03:46:00,2.6,-0.4,30.18,SE,126,0.0,1.0,87,0.00,,OVC040,0.00,VWS V14.01,2013-02-17 08:46:00,
2013-02-17 03:51:00,2.7,-0.3,30.18,SE,126,1.0,1.0,87,0.00,,OVC040,0.00,VWS V14.01,2013-02-17 08:51:00,
2013-02-17 03:56:00,2.7,-0.3,30.18,SE,126,1.0,1.0,87,0.00,,OVC040,0.00,VWS V14.01,2013-02-17 08:56:00,
2013-02-17 04:01:00,2.8,-0.2,30.18,SE,126,1.0,1.0,87,0.00,,OVC040,0.00,VWS V14.01,2013-02-17 09:01:00,
2013-02-17 04:06:00,2.8,-0.2,30.18,SE,126,1.0,2.0,87,0.00,,OVC038,0.00,VWS V14.01,2013-02-17 09:06:00,
2013-02-17 04:11:00,2.7,-0.3,30.18,SE,126,1.0,1.0,87,0.00,,OVC038,0.00,VWS V14.01,2013-02-17 09:11:00,
2013-02-17 04:16:00,2.6,-0.4,30.18,SE,126,1.0,2.0,87,0.00,,OVC038,0.00,VWS V14.01,2013-02-17 09:16:00,
2013-02-17 04:21:00,2.7,-0.3,30.18,SE,128,2.0,2.0,87,0.00,,OVC038,0.00,VWS V14.01,2013-02-17 09:21:00,
2013-02-17 04:26:00,2.6,-0.4,30.18,SE,128,1.0,1.0,87,0.00,,OVC038,0.00,VWS V14.01,2013-02-17 09:26:00,
2013-02-17 04:31:00,2.2,-0.8,30.18,SE,128,0.0,1.0,87,0.00,,OVC038,0.00,VWS V14.01,2013-02-17 09:31:00,
2013-02-17 04:36:00,2.1,-0.9,30.18,SE,128,1.0,2.0,87,0.00,,OVC038,0.00,VWS V14.01,2013-02-17 09:36:00,
2013-02-17 04:41:00,2.1,-0.9,30.17,SE,128,1.0,2.0,87,0.00,,OVC038,0.00,VWS V14.01,2013-02-17 09:41:00,
2013-02-17 04:46:00,2.2,-0.8,30.17,SE,128,1.0,1.0,87,0.00,,OVC038,0.00,VWS V14.01,2013-02-17 09:46:00,
2013-02-17 04:51:00,2.3,-0.7,30.18,SE,128,1.0,1.0,87,0.00,,OVC038,0.00,VWS V14.01,2013-02-17 09:51:00,
2013-02-17 04:56:00,2.4,-0.6,30.18,ESE,116,1.0,2.0,87,0.00,,OVC038,0.00,VWS V14.01,2013-02-17 09:56:00,
2013-02-17 05:01:00,2.8,0.1,30.18,ESE,116,1.0,1.0,88,0.00,,OVC038,0.00,VWS V14.01,2013-02-17 10:01:00,
2013-02-17 05:06:00,2.8,-0.2,30.18,ESE,116,0.0,1.0,87,0.00,,OVC038,0.00,VWS V14.01,2013-02-17 10:06:00,
2013-02-17 05:11:00,3.3,0.6,30.18,ESE,116,2.0,2.0,88,0.00,,OVC038,0.00,VWS V14.01,2013-02-17 10:11:00,
2013-02-17 05:16:00,3.1,0.1,30.18,ESE,116,2.0,3.0,87,0.00,,OVC038,0.00,VWS V14.01,2013-02-17 10:16:00,
2013-02-17 05:21:00,3.3,0.3,30.18,SE,130,0.0,1.0,87,0.00,,OVC038,0.00,VWS V14.01,2013-02-17 10:21:00,
2013-02-17 05:26:00,3.5,0.5,30.18,SE,130,0.0,1.0,87,0.00,,OVC038,0.00,VWS V14.01,2013-02-17 10:26:00,
2013-02-17 05:31:00,3.3,0.3,30.18,SE,130,2.0,2.0,87,0.00,,OVC038,0.00,VWS V14.01,2013-02-17 10:31:00,
2013-02-17 05:36:00,3.5,0.5,30.18,SE,130,0.0,1.0,87,0.00,,OVC038,0.00,VWS V14.01,2013-02-17 10:36:00,
2013-02-17 05:41:00,3.5,0.5,30.18,SE,130,0.0,1.0,87,0.00,,OVC038,0.00,VWS V14.01,2013-02-17 10:41:00,
2013-02-17 05:46:00,3.5,0.5,30.17,SE,130,1.0,1.0,87,0.00,,OVC038,0.00,VWS V14.01,2013-02-17 10:46:00,
2013-02-17 05:51:00,3.4,0.4,30.17,SE,130,1.0,2.0,87,0.00,,OVC038,0.00,VWS V14.01,2013-02-17 10:51:00,
2013-02-17 05:56:00,3.5,0.5,30.17,SE,130,0.0,1.0,87,0.00,,OVC038,0.00,VWS V14.01,2013-02-17 10:56:00,
2013-02-17 06:01:00,3.3,0.3,30.18,SE,130,1.0,2.0,87,0.00,,OVC038,0.00,VWS V14.01,2013-02-17 11:01:00,
2013-02-17 06:06:00,3.6,0.6,30.18,SE,130,1.0,1.0,87,0.00,,OVC040,0.00,VWS V14.01,2013-02-17 11:06:00,
2013-02-17 06:11:00,3.4,0.4,30.17,SE,130,1.0,2.0,87,0.00,,OVC040,0.00,VWS V14.01,2013-02-17 11:11:00,
2013-02-17 06:16:00,3.0,-0.2,30.17,SE,144,4.0,4.0,86,0.00,,OVC040,0.00,VWS V14.01,2013-02-17 11:16:00,
2013-02-17 06:21:00,3.0,0.0,30.18,SSE,151,2.0,2.0,87,0.00,,OVC040,0.00,VWS V14.01,2013-02-17 11:21:00,
2013-02-17 06:26:00,3.2,0.2,30.18,East,100,1.0,2.0,87,0.00,,OVC040,0.00,VWS V14.01,2013-02-17 11:26:00,
2013-02-17 06:32:00,3.6,0.9,30.18,East,80,3.0,5.0,88,0.00,,OVC040,0.00,VWS V14.01,2013-02-17 11:32:00,
2013-02-17 06:37:00,3.8,0.8,30.18,East,82,0.0,1.0,87,0.00,,OVC040,0.00,VWS V14.01,2013-02-17 11:37:00,
2013-02-17 06:42:00,4.2,1.4,30.18,ESE,107,1.0,1.0,88,0.00,,OVC040,0.00,VWS V14.01,2013-02-17 11:42:00,
2013-02-17 06:47:00,4.1,1.1,30.18,SSE,152,0.0,1.0,87,0.00,,OVC040,0.00,VWS V14.01,2013-02-17 11:47:00,
2013-02-17 06:52:00,3.8,0.8,30.19,ENE,67,1.0,2.0,87,0.00,,OVC040,0.00,VWS V14.01,2013-02-17 11:52:00,
2013-02-17 06:57:00,4.0,1.2,30.19,ESE,107,2.0,2.0,88,0.00,,OVC040,0.00,VWS V14.01,2013-02-17 11:57:00,
2013-02-17 07:02:00,4.6,1.8,30.19,East,79,3.0,3.0,88,0.00,,OVC040,0.00,VWS V14.01,2013-02-17 12:02:00,
2013-02-17 07:07:00,4.8,2.0,30.19,East,95,1.0,1.0,88,0.00,,OVC040,0.00,VWS V14.01,2013-02-17 12:07:00,
2013-02-17 07:12:00,5.0,2.2,30.19,East,96,1.0,1.0,88,0.00,,OVC040,0.00,VWS V14.01,2013-02-17 12:12:00,
2013-02-17 07:17:00,4.7,1.7,30.19,East,99,1.0,2.0,87,0.00,,OVC040,0.00,VWS V14.01,2013-02-17 12:17:00,
2013-02-17 07:22:00,4.6,1.8,30.19,East,100,1.0,2.0,88,0.00,,OVC040,0.00,VWS V14.01,2013-02-17 12:22:00,
2013-02-17 07:27:00,3.7,0.5,30.19,East,100,0.0,1.0,86,0.00,,OVC040,0.00,VWS V14.01,2013-02-17 12:27:00,
2013-02-17 07:32:00,2.5,-0.7,30.19,East,100,0.0,1.0,86,0.00,,OVC040,0.00,VWS V14.01,2013-02-17 12:32:00,
2013-02-17 07:37:00,2.3,-0.4,30.20,East,100,0.0,1.0,88,0.00,,OVC040,0.00,VWS V14.01,2013-02-17 12:37:00,
2013-02-17 07:42:00,1.7,-1.5,30.20,East,100,0.0,1.0,86,0.00,,OVC040,0.00,VWS V14.01,2013-02-17 12:42:00,
2013-02-17 07:47:00,1.3,-1.7,30.20,East,100,0.0,1.0,87,0.00,,OVC040,0.00,VWS V14.01,2013-02-17 12:47:00,
2013-02-17 07:52:00,1.1,-1.9,30.20,East,100,0.0,0.0,87,0.00,,OVC040,0.00,VWS V14.01,2013-02-17 12:52:00,
2013-02-17 07:57:00,1.1,-1.9,30.20,East,100,2.0,2.0,87,0.00,,OVC040,0.00,VWS V14.01,2013-02-17 12:57:00,
2013-02-17 08:02:00,3.0,0.7,30.20,East,100,0.0,1.0,90,0.00,,OVC040,0.00,VWS V14.01,2013-02-17 13:02:00,
2013-02-17 08:07:00,4.0,1.5,30.20,East,100,0.0,1.0,89,0.00,,BKN044,0.00,VWS V14.01,2013-02-17 13:07:00,
2013-02-17 08:12:00,4.0,1.0,30.20,ESE,105,1.0,1.0,87,0.00,,BKN044,0.00,VWS V14.01,2013-02-17 13:12:00,
2013-02-17 08:17:00,4.1,1.3,30.20,ESE,106,0.0,0.0,88,0.00,,BKN044,0.00,VWS V14.01,2013-02-17 13:17:00,
2013-02-17 08:22:00,4.1,1.1,30.20,ESE,114,0.0,1.0,87,0.00,,BKN044,0.00,VWS V14.01,2013-02-17 13:22:00,
2013-02-17 08:27:00,4.5,1.7,30.20,ESE,122,0.0,1.0,88,0.00,,BKN044,0.00,VWS V14.01,2013-02-17 13:27:00,
2013-02-17 08:32:00,4.6,1.6,30.20,SE,125,1.0,1.0,87,0.00,,BKN044,0.00,VWS V14.01,2013-02-17 13:32:00,
2013-02-17 08:37:00,5.0,2.2,30.20,SSW,207,2.0,3.0,88,0.00,,BKN044,0.00,VWS V14.01,2013-02-17 13:37:00,
2013-02-17 08:42:00,5.5,2.7,30.20,SSW,211,0.0,0.0,88,0.00,,BKN044,0.00,VWS V14.01,2013-02-17 13:42:00,
2013-02-17 08:47:00,5.8,3.0,30.20,SSW,211,1.0,2.0,88,0.00,,BKN044,0.00,VWS V14.01,2013-02-17 13:47:00,
2013-02-17 08:52:00,6.2,3.4,30.20,SSW,211,1.0,2.0,88,0.00,,BKN044,0.00,VWS V14.01,2013-02-17 13:52:00,
2013-02-17 08:57:00,6.8,4.0,30.21,SSW,210,0.0,1.0,88,0.00,,BKN044,0.00,VWS V14.01,2013-02-17 13:57:00,
2013-02-17 09:02:00,7.0,4.0,30.20,SSW,209,1.0,2.0,87,0.00,,BKN044,0.00,VWS V14.01,2013-02-17 14:02:00,
2013-02-17 09:07:00,7.8,5.0,30.21,SW,215,1.0,1.0,88,0.00,,OVC044,0.00,VWS V14.01,2013-02-17 14:07:00,
2013-02-17 09:12:00,8.0,5.2,30.20,SW,215,1.0,1.0,88,0.00,,OVC044,0.00,VWS V14.01,2013-02-17 14:12:00,
2013-02-17 09:17:00,8.5,5.7,30.20,SW,215,1.0,1.0,88,0.00,,OVC044,0.00,VWS V14.01,2013-02-17 14:17:00,
2013-02-17 09:22:00,9.2,6.1,30.21,SSE,167,1.0,1.0,87,0.00,,OVC044,0.00,VWS V14.01,2013-02-17 14:22:00,
2013-02-17 09:27:00,9.5,6.2,30.21,SSE,167,0.0,1.0,86,0.00,,OVC044,0.00,VWS V14.01,2013-02-17 14:27:00,
2013-02-17 09:32:00,10.0,6.7,30.21,SE,144,1.0,3.0,86,0.00,,OVC044,0.00,VWS V14.01,2013-02-17 14:32:00,
2013-02-17 09:37:00,10.2,6.6,30.21,SE,130,2.0,3.0,85,0.00,,OVC044,0.00,VWS V14.01,2013-02-17 14:37:00,
2013-02-17 09:42:00,10.3,6.7,30.21,SE,134,1.0,3.0,85,0.00,,OVC044,0.00,VWS V14.01,2013-02-17 14:42:00,
2013-02-17 09:47:00,10.6,7.0,30.21,ESE,116,4.0,4.0,85,0.00,,OVC044,0.00,VWS V14.01,2013-02-17 14:47:00,
2013-02-17 09:52:00,10.8,7.2,30.21,SE,145,2.0,4.0,85,0.00,,OVC044,0.00,VWS V14.01,2013-02-17 14:52:00,
2013-02-17 09:58:00,11.0,7.1,30.21,SSE,162,2.0,4.0,84,0.00,,OVC044,0.00,VWS V14.01,2013-02-17 14:58:00,
2013-02-17 10:03:00,10.8,6.7,30.21,ESE,118,4.0,7.0,83,0.00,,OVC044,0.00,VWS V14.01,2013-02-17 15:03:00,
2013-02-17 10:08:00,10.7,6.6,30.21,ESE,104,4.0,4.0,83,0.00,,OVC042,0.00,VWS V14.01,2013-02-17 15:08:00,
2013-02-17 10:13:00,11.1,7.0,30.21,ESE,117,3.0,3.0,83,0.00,,OVC042,0.00,VWS V14.01,2013-02-17 15:13:00,
2013-02-17 10:18:00,11.5,7.3,30.21,ESE,117,0.0,1.0,83,0.00,,OVC042,0.00,VWS V14.01,2013-02-17 15:18:00,
2013-02-17 10:23:00,11.7,7.6,30.21,ESE,117,2.0,2.0,83,0.00,,OVC042,0.00,VWS V14.01,2013-02-17 15:23:00,
2013-02-17 10:28:00,11.9,7.5,30.21,East,97,3.0,3.0,82,0.00,,OVC042,0.00,VWS V14.01,2013-02-17 15:28:00,
2013-02-17 10:33:00,12.1,7.7,30.22,ESE,115,1.0,2.0,82,0.00,,OVC042,0.00,VWS V14.01,2013-02-17 15:33:00,
2013-02-17 10:38:00,12.7,8.3,30.22,East,91,2.0,3.0,82,0.00,,OVC042,0.00,VWS V14.01,2013-02-17 15:38:00,
2013-02-17 10:43:00,12.3,7.6,30.22,East,97,2.0,3.0,81,0.00,,OVC042,0.00,VWS V14.01,2013-02-17 15:43:00,
2013-02-17 10:48:00,12.9,7.9,30.22,ENE,78,2.0,3.0,80,0.00,,OVC042,0.00,VWS V14.01,2013-02-17 15:48:00,
2013-02-17 10:53:00,13.1,8.1,30.22,ESE,108,1.0,2.0,80,0.00,,OVC042,0.00,VWS V14.01,2013-02-17 15:53:00,
2013-02-17 10:58:00,13.9,8.9,30.22,ESE,103,1.0,2.0,80,0.00,,OVC042,0.00,VWS V14.01,2013-02-17 15:58:00,
2013-02-17 11:03:00,14.3,8.7,30.22,NNE,29,0.0,2.0,78,0.00,,OVC042,0.00,VWS V14.01,2013-02-17 16:03:00,
2013-02-17 11:08:00,13.9,8.3,30.22,ESE,113,4.0,4.0,78,0.00,,OVC042,0.00,VWS V14.01,2013-02-17 16:08:00,
2013-02-17 11:13:00,13.6,8.3,30.22,East,88,2.0,2.0,79,0.00,,OVC044,0.00,VWS V14.01,2013-02-17 16:13:00,
2013-02-17 11:18:00,14.0,8.4,30.22,ENE,61,3.0,3.0,78,0.00,,OVC044,0.00,VWS V14.01,2013-02-17 16:18:00,
2013-02-17 11:23:00,14.1,8.5,30.22,ENE,61,1.0,2.0,78,0.00,,OVC044,0.00,VWS V14.01,2013-02-17 16:23:00,
2013-02-17 11:28:00,14.4,8.5,30.22,ENE,65,1.0,2.0,77,0.00,,OVC044,0.00,VWS V14.01,2013-02-17 16:28:00,
2013-02-17 11:33:00,15.2,8.7,30.22,ESE,106,2.0,3.0,75,0.00,,OVC044,0.00,VWS V14.01,2013-02-17 16:33:00,
2013-02-17 11:38:00,15.3,8.8,30.22,ESE,103,2.0,3.0,75,0.00,,OVC044,0.00,VWS V14.01,2013-02-17 16:38:00,
2013-02-17 11:43:00,15.3,8.5,30.21,ENE,67,1.0,1.0,74,0.00,,OVC044,0.00,VWS V14.01,2013-02-17 16:43:00,
2013-02-17 11:48:00,15.1,8.0,30.22,ENE,75,1.0,1.0,73,0.00,,OVC044,0.00,VWS V14.01,2013-02-17 16:48:00,
2013-02-17 11:53:00,16.9,10.4,30.21,ENE,73,1.0,1.0,75,0.00,,OVC044,0.00,VWS V14.01,2013-02-17 16:53:00,
2013-02-17 11:58:00,15.8,8.1,30.21,ESE,115,2.0,2.0,71,0.00,,OVC044,0.00,VWS V14.01,2013-02-17 16:58:00,
2013-02-17 12:03:00,15.7,8.0,30.21,East,101,1.0,3.0,71,0.00,,OVC044,0.00,VWS V14.01,2013-02-17 17:03:00,
2013-02-17 12:08:00,15.8,7.4,30.21,ESE,117,3.0,3.0,69,0.00,,OVC044,0.00,VWS V14.01,2013-02-17 17:08:00,
2013-02-17 12:13:00,16.1,7.4,30.21,SE,138,1.0,3.0,68,0.00,,FEW040,0.00,VWS V14.01,2013-02-17 17:13:00,
2013-02-17 12:18:00,16.4,7.7,30.21,ENE,76,3.0,5.0,68,0.00,,FEW040,0.00,VWS V14.01,2013-02-17 17:18:00,
2013-02-17 12:23:00,16.8,7.8,30.21,South,175,3.0,3.0,67,0.00,,FEW040,0.00,VWS V14.01,2013-02-17 17:23:00,
2013-02-17 12:28:00,17.6,6.1,30.20,WNW,288,1.0,4.0,60,0.00,,FEW040,0.00,VWS V14.01,2013-02-17 17:28:00,
2013-02-17 12:33:00,17.9,6.0,30.20,NW,313,5.0,6.0,59,0.00,,FEW040,0.00,VWS V14.01,2013-02-17 17:33:00,
2013-02-17 12:38:00,18.5,6.6,30.20,North,11,4.0,5.0,59,0.00,,FEW040,0.00,VWS V14.01,2013-02-17 17:38:00,
2013-02-17 12:43:00,18.8,6.1,30.20,NNW,342,6.0,7.0,57,0.00,,FEW040,0.00,VWS V14.01,2013-02-17 17:43:00,
2013-02-17 12:48:00,19.0,5.9,30.20,NNE,15,6.0,7.0,56,0.00,,FEW040,0.00,VWS V14.01,2013-02-17 17:48:00,
2013-02-17 12:53:00,19.3,6.2,30.19,NNW,338,3.0,4.0,56,0.00,,FEW040,0.00,VWS V14.01,2013-02-17 17:53:00,
2013-02-17 12:58:00,19.0,4.7,30.19,NNW,341,2.0,7.0,53,0.00,,FEW040,0.00,VWS V14.01,2013-02-17 17:58:00,
2013-02-17 13:03:00,18.9,5.0,30.19,NNE,28,5.0,5.0,54,0.00,,FEW040,0.00,VWS V14.01,2013-02-17 18:03:00,
2013-02-17 13:08:00,18.4,4.6,30.19,NE,40,6.0,7.0,54,0.00,,FEW036,0.00,VWS V14.01,2013-02-17 18:08:00,
2013-02-17 13:13:00,17.8,4.8,30.19,NE,36,6.0,7.0,56,0.00,,FEW036,0.00,VWS V14.01,2013-02-17 18:13:00,
2013-02-17 13:18:00,19.2,5.7,30.19,NNE,19,5.0,5.0,55,0.00,,FEW036,0.00,VWS V14.01,2013-02-17 18:18:00,
2013-02-17 13:23:00,18.8,4.1,30.18,North,2,4.0,4.0,52,0.00,,FEW036,0.00,VWS V14.01,2013-02-17 18:23:00,
2013-02-17 13:28:00,19.0,5.5,30.18,North,352,4.0,5.0,55,0.00,,FEW036,0.00,VWS V14.01,2013-02-17 18:28:00,
2013-02-17 13:33:00,20.0,5.2,30.18,NW,309,3.0,4.0,52,0.00,,FEW036,0.00,VWS V14.01,2013-02-17 18:33:00,
2013-02-17 13:38:00,19.5,5.6,30.18,NE,40,1.0,2.0,54,0.00,,FEW036,0.00,VWS V14.01,2013-02-17 18:38:00,
2013-02-17 13:43:00,19.9,6.3,30.18,NNE,26,1.0,2.0,55,0.00,,FEW036,0.00,VWS V14.01,2013-02-17 18:43:00,
2013-02-17 13:48:00,19.4,5.5,30.18,NNE,29,2.0,4.0,54,0.00,,FEW036,0.00,VWS V14.01,2013-02-17 18:48:00,
2013-02-17 13:53:00,19.3,4.1,30.17,West,267,5.0,7.0,51,0.00,,FEW036,0.00,VWS V14.01,2013-02-17 18:53:00,
2013-02-17 13:58:00,19.0,4.3,30.17,SW,231,3.0,4.0,52,0.00,,FEW036,0.00,VWS V14.01,2013-02-17 18:58:00,
2013-02-17 14:04:00,19.5,5.6,30.17,WNW,298,6.0,6.0,54,0.00,,FEW036,0.00,VWS V14.01,2013-02-17 19:04:00,
2013-02-17 14:09:00,19.8,5.0,30.17,NNW,334,4.0,7.0,52,0.00,,BKN041,0.00,VWS V14.01,2013-02-17 19:09:00,
2013-02-17 14:14:00,19.9,5.5,30.17,NE,55,6.0,8.0,53,0.00,,BKN041,0.00,VWS V14.01,2013-02-17 19:14:00,
2013-02-17 14:19:00,19.7,5.8,30.17,NNE,15,2.0,4.0,54,0.00,,BKN041,0.00,VWS V14.01,2013-02-17 19:19:00,
2013-02-17 14:24:00,20.4,5.6,30.17,North,353,1.0,3.0,52,0.00,,BKN041,0.00,VWS V14.01,2013-02-17 19:24:00,
2013-02-17 14:29:00,21.1,6.2,30.17,NNW,344,6.0,7.0,52,0.00,,BKN041,0.00,VWS V14.01,2013-02-17 19:29:00,
2013-02-17 14:34:00,20.0,4.8,30.17,WSW,253,1.0,5.0,51,0.00,,BKN041,0.00,VWS V14.01,2013-02-17 19:34:00,
2013-02-17 14:39:00,19.9,5.5,30.17,West,271,7.0,7.0,53,0.00,,BKN041,0.00,VWS V14.01,2013-02-17 19:39:00,
2013-02-17 14:44:00,19.4,5.1,30.17,NNW,335,1.0,2.0,53,0.00,,BKN041,0.00,VWS V14.01,2013-02-17 19:44:00,
2013-02-17 14:49:00,19.6,5.3,30.17,NNW,329,6.0,7.0,53,0.00,,BKN041,0.00,VWS V14.01,2013-02-17 19:49:00,
2013-02-17 14:54:00,19.9,5.5,30.17,NW,310,3.0,7.0,53,0.00,,BKN041,0.00,VWS V14.01,2013-02-17 19:54:00,
2013-02-17 14:59:00,20.2,5.8,30.17,NNE,14,2.0,2.0,53,0.00,,BKN041,0.00,VWS V14.01,2013-02-17 19:59:00,
2013-02-17 15:04:00,20.1,5.7,30.17,WNW,286,2.0,3.0,53,0.00,,BKN041,0.00,VWS V14.01,2013-02-17 20:04:00,
2013-02-17 15:09:00,20.3,5.9,30.17,NNW,328,2.0,4.0,53,0.00,,BKN043,0.00,VWS V14.01,2013-02-17 20:09:00,
2013-02-17 15:14:00,19.8,5.4,30.17,North,357,5.0,6.0,53,0.00,,BKN043,0.00,VWS V14.01,2013-02-17 20:14:00,
2013-02-17 15:19:00,19.6,5.7,30.17,NNW,337,6.0,6.0,54,0.00,,BKN043,0.00,VWS V14.01,2013-02-17 20:19:00,
2013-02-17 15:24:00,19.3,5.0,30.17,NW,317,8.0,8.0,53,0.00,,BKN043,0.00,VWS V14.01,2013-02-17 20:24:00,
2013-02-17 15:29:00,19.0,5.9,30.17,NW,323,6.0,8.0,56,0.00,,BKN043,0.00,VWS V14.01,2013-02-17 20:29:00,
2013-02-17 15:34:00,18.6,5.1,30.17,West,269,7.0,7.0,55,0.00,,BKN043,0.00,VWS V14.01,2013-02-17 20:34:00,
2013-02-17 15:39:00,18.5,5.4,30.17,NNW,348,3.0,6.0,56,0.00,,BKN043,0.00,VWS V14.01,2013-02-17 20:39:00,
2013-02-17 15:44:00,18.3,6.0,30.17,NW,324,3.0,5.0,58,0.00,,BKN043,0.00,VWS V14.01,2013-02-17 20:44:00,
2013-02-17 15:49:00,18.7,7.1,30.17,North,353,4.0,7.0,60,0.00,,BKN043,0.00,VWS V14.01,2013-02-17 20:49:00,
2013-02-17 15:54:00,18.7,7.5,30.17,NW,321,4.0,6.0,61,0.00,,BKN043,0.00,VWS V14.01,2013-02-17 20:54:00,
2013-02-17 15:59:00,18.8,7.6,30.17,NW,309,2.0,4.0,61,0.00,,BKN043,0.00,VWS V14.01,2013-02-17 20:59:00,
2013-02-17 16:04:00,18.9,8.1,30.17,NW,323,3.0,5.0,62,0.00,,BKN043,0.00,VWS V14.01,2013-02-17 21:04:00,
2013-02-17 16:09:00,18.9,8.1,30.17,NNW,336,5.0,5.0,62,0.00,,OVC039,0.00,VWS V14.01,2013-02-17 21:09:00,
2013-02-17 16:14:00,19.0,8.5,30.17,WNW,287,2.0,2.0,63,0.00,,OVC039,0.00,VWS V14.01,2013-02-17 21:14:00,
2013-02-17 16:19:00,18.9,8.4,30.17,NNW,339,2.0,3.0,63,0.00,,OVC039,0.00,VWS V14.01,2013-02-17 21:19:00,
2013-02-17 16:24:00,18.9,8.4,30.17,NNW,330,2.0,3.0,63,0.00,,OVC039,0.00,VWS V14.01,2013-02-17 21:24:00,
2013-02-17 16:29:00,18.9,8.4,30.17,NW,326,3.0,5.0,63,0.00,,OVC039,0.00,VWS V14.01,2013-02-17 21:29:00,
2013-02-17 16:34:00,19.0,8.8,30.17,NNE,28,0.0,2.0,64,0.00,,OVC039,0.00,VWS V14.01,2013-02-17 21:34:00,
2013-02-17 16:39:00,18.9,9.1,30.17,WNW,291,2.0,4.0,65,0.00,,OVC039,0.00,VWS V14.01,2013-02-17 21:39:00,
2013-02-17 16:44:00,19.1,9.6,30.17,WSW,250,4.0,4.0,66,0.00,,OVC039,0.00,VWS V14.01,2013-02-17 21:44:00,
2013-02-17 16:49:00,19.3,9.8,30.16,WSW,238,8.0,8.0,66,0.00,,OVC039,0.00,VWS V14.01,2013-02-17 21:49:00,
2013-02-17 16:54:00,19.3,9.5,30.17,SW,233,7.0,8.0,65,0.00,,OVC039,0.00,VWS V14.01,2013-02-17 21:54:00,
2013-02-17 16:59:00,19.3,9.8,30.16,West,275,4.0,6.0,66,0.00,,OVC039,0.00,VWS V14.01,2013-02-17 21:59:00,
2013-02-17 17:04:00,19.3,9.8,30.16,SW,231,6.0,11.0,66,0.00,,OVC039,0.00,VWS V14.01,2013-02-17 22:04:00,
2013-02-17 17:09:00,19.2,9.4,30.16,WNW,301,4.0,6.0,65,0.00,,OVC035,0.00,VWS V14.01,2013-02-17 22:09:00,
2013-02-17 17:15:00,19.1,9.3,30.16,WNW,300,5.0,7.0,65,0.00,,OVC035,0.00,VWS V14.01,2013-02-17 22:15:00,
2013-02-17 17:20:00,19.0,9.2,30.16,WSW,248,3.0,9.0,65,0.00,,OVC035,0.00,VWS V14.01,2013-02-17 22:20:00,
2013-02-17 17:25:00,18.8,9.0,30.16,WNW,299,8.0,8.0,65,0.00,,OVC035,0.00,VWS V14.01,2013-02-17 22:25:00,
2013-02-17 17:30:00,18.5,9.1,30.16,SW,236,2.0,5.0,66,0.00,,OVC035,0.00,VWS V14.01,2013-02-17 22:30:00,
2013-02-17 17:35:00,18.5,9.4,30.16,WNW,285,3.0,4.0,67,0.00,,OVC035,0.00,VWS V14.01,2013-02-17 22:35:00,
2013-02-17 17:40:00,18.5,9.4,30.16,WNW,286,5.0,7.0,67,0.00,,OVC035,0.00,VWS V14.01,2013-02-17 22:40:00,
2013-02-17 17:45:00,18.5,9.4,30.16,WNW,285,2.0,3.0,67,0.00,,OVC035,0.00,VWS V14.01,2013-02-17 22:45:00,
2013-02-17 17:50:00,18.5,9.4,30.16,West,271,3.0,3.0,67,0.00,,OVC035,0.00,VWS V14.01,2013-02-17 22:50:00,
2013-02-17 17:55:00,18.4,9.3,30.16,WSW,254,3.0,5.0,67,0.00,,OVC035,0.00,VWS V14.01,2013-02-17 22:55:00,
2013-02-17 18:00:00,18.3,9.2,30.16,WSW,250,2.0,2.0,67,0.00,,OVC035,0.00,VWS V14.01,2013-02-17 23:00:00,
2013-02-17 18:05:00,18.2,9.4,30.16,WSW,246,3.0,4.0,68,0.00,,OVC035,0.00,VWS V14.01,2013-02-17 23:05:00,
2013-02-17 18:10:00,18.2,9.4,30.16,West,259,2.0,2.0,68,0.00,,OVC033,0.00,VWS V14.01,2013-02-17 23:10:00,
2013-02-17 18:15:00,18.2,9.4,30.16,WNW,285,4.0,5.0,68,0.00,,OVC033,0.00,VWS V14.01,2013-02-17 23:15:00,
2013-02-17 18:20:00,18.3,9.9,30.16,West,260,2.0,2.0,69,0.00,,OVC033,0.00,VWS V14.01,2013-02-17 23:20:00,
2013-02-17 18:25:00,18.2,9.8,30.16,WSW,245,1.0,2.0,69,0.00,,OVC033,0.00,VWS V14.01,2013-02-17 23:25:00,
2013-02-17 18:30:00,18.2,9.8,30.16,WSW,242,1.0,1.0,69,0.00,,OVC033,0.00,VWS V14.01,2013-02-17 23:30:00,
2013-02-17 18:35:00,18.1,10.0,30.15,WSW,238,2.0,2.0,70,0.00,,OVC033,0.00,VWS V14.01,2013-02-17 23:35:00,
2013-02-17 18:40:00,18.2,9.8,30.15,WSW,238,0.0,1.0,69,0.00,,OVC033,0.00,VWS V14.01,2013-02-17 23:40:00,
2013-02-17 18:45:00,18.1,10.0,30.15,WSW,238,0.0,1.0,70,0.00,,OVC033,0.00,VWS V14.01,2013-02-17 23:45:00,
2013-02-17 18:50:00,18.1,10.0,30.15,WSW,238,1.0,1.0,70,0.00,,OVC033,0.00,VWS V14.01,2013-02-17 23:50:00,
2013-02-17 18:55:00,18.1,10.0,30.15,WSW,238,0.0,1.0,70,0.00,,OVC033,0.00,VWS V14.01,2013-02-17 23:55:00,
2013-02-17 19:00:00,18.0,10.2,30.15,SW,236,0.0,1.0,71,0.00,,OVC033,0.00,VWS V14.01,2013-02-18 00:00:00,
2013-02-17 19:05:00,17.7,10.5,30.15,SW,236,1.0,1.0,73,0.00,,OVC033,0.00,VWS V14.01,2013-02-18 00:05:00,
2013-02-17 19:10:00,17.6,10.4,30.15,SW,228,2.0,3.0,73,0.00,,OVC033,0.00,VWS V14.01,2013-02-18 00:10:00,
2013-02-17 19:16:00,17.5,10.3,30.15,SW,219,1.0,2.0,73,0.00,,OVC033,0.00,VWS V14.01,2013-02-18 00:16:00,
2013-02-17 19:21:00,17.5,10.6,30.15,SSW,212,1.0,2.0,74,0.00,,OVC033,0.00,VWS V14.01,2013-02-18 00:21:00,
2013-02-17 19:26:00,17.5,10.6,30.15,SSW,212,1.0,2.0,74,0.00,,OVC033,0.00,VWS V14.01,2013-02-18 00:26:00,
2013-02-17 19:31:00,17.6,10.7,30.15,SSW,212,1.0,2.0,74,0.00,,OVC033,0.00,VWS V14.01,2013-02-18 00:31:00,
2013-02-17 19:36:00,17.7,10.5,30.15,SSW,212,1.0,2.0,73,0.00,,OVC033,0.00,VWS V14.01,2013-02-18 00:36:00,
2013-02-17 19:41:00,17.7,10.8,30.15,SSW,212,2.0,2.0,74,0.00,,OVC033,0.00,VWS V14.01,2013-02-18 00:41:00,
2013-02-17 19:46:00,17.6,11.0,30.15,SSW,204,0.0,1.0,75,0.00,,OVC033,0.00,VWS V14.01,2013-02-18 00:46:00,
2013-02-17 19:51:00,17.6,11.0,30.15,SSW,203,2.0,2.0,75,0.00,,OVC033,0.00,VWS V14.01,2013-02-18 00:51:00,
2013-02-17 19:56:00,17.6,11.3,30.15,SSW,203,1.0,2.0,76,0.00,,OVC033,0.00,VWS V14.01,2013-02-18 00:56:00,
2013-02-17 20:01:00,17.7,11.4,30.15,South,180,1.0,3.0,76,0.00,,OVC033,0.00,VWS V14.01,2013-02-18 01:01:00,
2013-02-17 20:06:00,17.7,11.1,30.15,SE,146,1.0,3.0,75,0.00,,OVC033,0.00,VWS V14.01,2013-02-18 01:06:00,
2013-02-17 20:11:00,17.9,11.3,30.15,South,175,0.0,2.0,75,0.00,,OVC033,0.00,VWS V14.01,2013-02-18 01:11:00,
2013-02-17 20:16:00,17.9,11.3,30.15,SW,219,0.0,2.0,75,0.00,,OVC033,0.00,VWS V14.01,2013-02-18 01:16:00,
2013-02-17 20:21:00,17.8,10.9,30.15,SW,216,4.0,4.0,74,0.00,,OVC033,0.00,VWS V14.01,2013-02-18 01:21:00,
2013-02-17 20:26:00,17.7,10.8,30.15,SSW,209,3.0,3.0,74,0.00,,OVC033,0.00,VWS V14.01,2013-02-18 01:26:00,
2013-02-17 20:31:00,17.6,10.7,30.15,SSW,200,2.0,3.0,74,0.00,,OVC033,0.00,VWS V14.01,2013-02-18 01:31:00,
2013-02-17 20:36:00,17.3,10.4,30.15,SW,219,2.0,3.0,74,0.00,,OVC033,0.00,VWS V14.01,2013-02-18 01:36:00,
2013-02-17 20:41:00,17.1,10.3,30.15,SSW,192,2.0,3.0,74,0.00,,OVC033,0.00,VWS V14.01,2013-02-18 01:41:00,
2013-02-17 20:46:00,17.0,10.2,30.14,SSW,209,1.0,2.0,74,0.00,,OVC033,0.00,VWS V14.01,2013-02-18 01:46:00,
2013-02-17 20:51:00,17.0,10.2,30.14,SSW,196,0.0,1.0,74,0.00,,OVC033,0.00,VWS V14.01,2013-02-18 01:51:00,
2013-02-17 20:56:00,16.8,10.3,30.14,SSW,209,1.0,2.0,75,0.00,,OVC033,0.00,VWS V14.01,2013-02-18 01:56:00,
2013-02-17 21:01:00,16.7,10.2,30.14,SSE,152,2.0,3.0,75,0.00,,OVC033,0.00,VWS V14.01,2013-02-18 02:01:00,
2013-02-17 21:06:00,16.7,10.2,30.14,SSE,156,2.0,3.0,75,0.00,,OVC033,0.00,VWS V14.01,2013-02-18 02:06:00,
2013-02-17 21:11:00,16.6,10.1,30.14,SE,137,3.0,3.0,75,0.00,,OVC033,0.00,VWS V14.01,2013-02-18 02:11:00,
2013-02-17 21:16:00,16.6,10.1,30.14,SSE,152,0.0,1.0,75,0.00,,OVC033,0.00,VWS V14.01,2013-02-18 02:16:00,
2013-02-17 21:21:00,16.7,10.2,30.14,South,180,1.0,1.0,75,0.00,,OVC033,0.00,VWS V14.01,2013-02-18 02:21:00,
2013-02-17 21:26:00,16.8,10.3,30.14,SE,142,2.0,3.0,75,0.00,,OVC033,0.00,VWS V14.01,2013-02-18 02:26:00,
2013-02-17 21:31:00,16.9,10.4,30.14,SE,127,2.0,2.0,75,0.00,,OVC033,0.00,VWS V14.01,2013-02-18 02:31:00,
2013-02-17 21:36:00,17.0,10.5,30.14,SSW,213,1.0,3.0,75,0.00,,OVC033,0.00,VWS V14.01,2013-02-18 02:36:00,
2013-02-17 21:41:00,17.1,10.6,30.14,SE,145,2.0,3.0,75,0.00,,OVC033,0.00,VWS V14.01,2013-02-18 02:41:00,
2013-02-17 21:46:00,17.1,10.6,30.14,SW,222,2.0,4.0,75,0.00,,OVC033,0.00,VWS V14.01,2013-02-18 02:46:00,
2013-02-17 21:51:00,17.1,10.6,30.14,SSW,206,3.0,3.0,75,0.00,,OVC033,0.00,VWS V14.01,2013-02-18 02:51:00,
2013-02-17 21:56:00,17.1,10.6,30.14,SSW,206,1.0,2.0,75,0.00,,OVC033,0.00,VWS V14.01,2013-02-18 02:56:00,
2013-02-17 22:01:00,17.0,10.5,30.14,South,178,1.0,2.0,75,0.00,,OVC033,0.00,VWS V14.01,2013-02-18 03:01:00,
2013-02-17 22:06:00,17.0,10.8,30.14,SSE,163,2.0,2.0,76,0.00,,OVC033,0.00,VWS V14.01,2013-02-18 03:06:00,
2013-02-17 22:11:00,17.1,10.6,30.14,SE,140,3.0,3.0,75,0.00,,OVC031,0.00,VWS V14.01,2013-02-18 03:11:00,
2013-02-17 22:16:00,16.9,10.7,30.13,SE,138,3.0,3.0,76,0.00,,OVC031,0.00,VWS V14.01,2013-02-18 03:16:00,
2013-02-17 22:21:00,16.7,10.5,30.14,SSW,192,2.0,2.0,76,0.00,,OVC031,0.00,VWS V14.01,2013-02-18 03:21:00,
2013-02-17 22:26:00,16.7,10.5,30.13,SSE,148,2.0,2.0,76,0.00,,OVC031,0.00,VWS V14.01,2013-02-18 03:26:00,
2013-02-17 22:31:00,16.7,10.5,30.14,South,180,2.0,2.0,76,0.00,,OVC031,0.00,VWS V14.01,2013-02-18 03:31:00,
2013-02-17 22:36:00,16.6,10.4,30.13,SSE,147,3.0,3.0,76,0.00,,OVC031,0.00,VWS V14.01,2013-02-18 03:36:00,
2013-02-17 22:41:00,16.5,10.3,30.13,SE,142,1.0,2.0,76,0.00,,OVC031,0.00,VWS V14.01,2013-02-18 03:41:00,
2013-02-17 22:46:00,16.5,10.3,30.13,SE,129,1.0,2.0,76,0.00,,OVC031,0.00,VWS V14.01,2013-02-18 03:46:00,
2013-02-17 22:51:00,16.4,10.2,30.13,ESE,120,1.0,4.0,76,0.00,,OVC031,0.00,VWS V14.01,2013-02-18 03:51:00,
2013-02-17 22:56:00,16.5,10.3,30.13,SE,130,1.0,3.0,76,0.00,,OVC031,0.00,VWS V14.01,2013-02-18 03:56:00,
2013-02-17 23:01:00,16.5,10.3,30.13,SSE,163,2.0,5.0,76,0.00,,OVC031,0.00,VWS V14.01,2013-02-18 04:01:00,
2013-02-17 23:06:00,16.4,10.2,30.13,SE,137,2.0,4.0,76,0.00,,OVC031,0.00,VWS V14.01,2013-02-18 04:06:00,
2013-02-17 23:11:00,16.2,10.0,30.13,SE,141,2.0,3.0,76,0.00,,FEW031,0.00,VWS V14.01,2013-02-18 04:11:00,
2013-02-17 23:16:00,16.0,9.8,30.13,SE,135,2.0,3.0,76,0.00,,FEW031,0.00,VWS V14.01,2013-02-18 04:16:00,
2013-02-17 23:21:00,15.9,10.0,30.12,South,181,2.0,4.0,77,0.00,,FEW031,0.00,VWS V14.01,2013-02-18 04:21:00,
2013-02-17 23:26:00,15.9,10.0,30.12,SE,128,2.0,3.0,77,0.00,,FEW031,0.00,VWS V14.01,2013-02-18 04:26:00,
2013-02-17 23:31:00,16.1,10.2,30.12,SSE,157,5.0,6.0,77,0.00,,FEW031,0.00,VWS V14.01,2013-02-18 04:31:00,
2013-02-17 23:36:00,16.1,10.2,30.12,SE,144,2.0,3.0,77,0.00,,FEW031,0.00,VWS V14.01,2013-02-18 04:36:00,
2013-02-17 23:42:00,16.1,10.2,30.12,SE,136,3.0,4.0,77,0.00,,FEW031,0.00,VWS V14.01,2013-02-18 04:42:00,
2013-02-17 23:47:00,16.0,10.1,30.12,SE,145,2.0,4.0,77,0.00,,FEW031,0.00,VWS V14.01,2013-02-18 04:47:00,
2013-02-17 23:52:00,15.9,10.0,30.12,SE,138,5.0,5.0,77,0.00,,FEW031,0.00,VWS V14.01,2013-02-18 04:52:00,
2013-02-17 23:57:00,15.9,10.0,30.12,SSE,153,1.0,2.0,77,0.00,,FEW031,0.00,VWS V14.01,2013-02-18 04:57:00,